Han Xin — 3FDA — position and weather

sailwx.info

Track history (hours):
 
Tides and Currents Weather Stations Pressure Air Temp Water Temp Dewpoint Dewpoint Depression Visibility Wind Speed Wind Dir Waves Ship Positions

Han Xin

Last reported at 2018-Feb-03 06:30 UTC. Time now 2018-Feb-18 20:33 UTC.
Position N 37°04' E 012°12'.
Warning: this ship's position is 15 days out of date.

Length 153 m; draft 7.2 m.

Type: Ship. MMSI: 351619000.

Date/timePositionNaut miles runAvg speedWind from/ knotsBaromVisibWave heightAir tempDewpointWater temp
2018-Feb-03 06:30N 37°04' E 012°12'612.2
2018-Feb-03 06:00N 37°02' E 012°20'611.6
2018-Feb-03 05:31N 37°00' E 012°26'611.5
2018-Feb-03 05:01N 36°59' E 012°33'1211.7
2018-Feb-03 04:01N 36°55' E 012°47'612.5
2018-Feb-03 03:30N 36°53' E 012°55'1912.8
2018-Feb-03 02:00N 36°47' E 013°17'612.7
2018-Feb-03 01:30N 36°45' E 013°25'612.6
2018-Feb-03 01:00N 36°43' E 013°32'712.7
2018-Feb-03 00:27N 36°41' E 013°41'612.9
2018-Feb-02 23:58N 36°39' E 013°48'1012.9
2018-Feb-02 23:12N 36°36' E 013°60'313.1
2018-Feb-02 23:01N 36°35' E 014°03'612.9
2018-Feb-02 22:30N 36°33' E 014°11'612.6
2018-Feb-02 22:00N 36°31' E 014°18'612.9
2018-Feb-02 21:30N 36°29' E 014°26'613.0
2018-Feb-02 21:00N 36°27' E 014°33'712.9
2018-Feb-02 20:29N 36°25' E 014°41'2012.3
2018-Feb-02 18:50N 36°20' E 015°05'412.3
2018-Feb-02 18:30N 36°18' E 015°10'812.9
2018-Feb-02 17:55N 36°15' E 015°19'613.4
2018-Feb-02 17:28N 36°13' E 015°26'813.1
2018-Feb-02 16:53N 36°11' E 015°35'613.2
2018-Feb-02 16:24N 36°09' E 015°43'1212.9
2018-Feb-02 15:26N 36°05' E 015°57'1212.5
2018-Feb-02 14:28N 36°02' E 016°11'  
Track history (hours):
 
Tides and Currents Weather Stations Pressure Air Temp Water Temp Dewpoint Dewpoint Depression Visibility Wind Speed Wind Dir Waves Ship Positions

Han Xin

Last reported at 2018-Feb-03 06:30 UTC. Time now 2018-Feb-18 20:33 UTC.
Position N 37°04' E 012°12'.
Warning: this ship's position is 15 days out of date.

Length 153 m; draft 7.2 m.

Type: Ship. MMSI: 351619000.

Date/timePositionNaut miles runAvg speedWind from/ knotsBaromVisibWave heightAir tempDewpointWater temp
2018-Feb-03 06:30N 37°04' E 012°12'612.2
2018-Feb-03 06:00N 37°02' E 012°20'611.6
2018-Feb-03 05:31N 37°00' E 012°26'611.5
2018-Feb-03 05:01N 36°59' E 012°33'1211.7
2018-Feb-03 04:01N 36°55' E 012°47'612.5
2018-Feb-03 03:30N 36°53' E 012°55'1912.8
2018-Feb-03 02:00N 36°47' E 013°17'612.7
2018-Feb-03 01:30N 36°45' E 013°25'612.6
2018-Feb-03 01:00N 36°43' E 013°32'712.7
2018-Feb-03 00:27N 36°41' E 013°41'612.9
2018-Feb-02 23:58N 36°39' E 013°48'1012.9
2018-Feb-02 23:12N 36°36' E 013°60'313.1
2018-Feb-02 23:01N 36°35' E 014°03'612.9
2018-Feb-02 22:30N 36°33' E 014°11'612.6
2018-Feb-02 22:00N 36°31' E 014°18'612.9
2018-Feb-02 21:30N 36°29' E 014°26'613.0
2018-Feb-02 21:00N 36°27' E 014°33'712.9
2018-Feb-02 20:29N 36°25' E 014°41'2012.3
2018-Feb-02 18:50N 36°20' E 015°05'412.3
2018-Feb-02 18:30N 36°18' E 015°10'812.9
2018-Feb-02 17:55N 36°15' E 015°19'613.4
2018-Feb-02 17:28N 36°13' E 015°26'813.1
2018-Feb-02 16:53N 36°11' E 015°35'613.2
2018-Feb-02 16:24N 36°09' E 015°43'1212.9
2018-Feb-02 15:26N 36°05' E 015°57'1212.5
2018-Feb-02 14:28N 36°02' E 016°11'  

Dump ship's entire track history